Current | Forecast
Updated: 10:30 PM EET on February 22, 2018
Observed at L'viv, Ukraine
Temperature -4°C
Windchill -10°C
Humidity 86%
Dew Point -6°C
Wind ESE at 18 km/h
Pressure 1021 hPa (Steady)
Conditions Light Snow
Visibility 7.0 kilometers
UV 0 out of 16
Clouds Overcast (OVC) : 396 m
Yesterday's Maximum -1°C
Yesterday's Minimum -4°C approx.
Yesterday's Heating Degree Days 38 approx.
Sunrise7:20 AM EET
Sunset5:55 PM EET
Moon Rise10:34 AM EET
Moon Set12:06 AM EET
Moon PhaseMoon Phase
Waxing Crescent
Raw METARMETAR UKLL 222030Z 11005MPS 7000 -SN OVC013 M04/M06 Q1021 R13/490538 NOSIG


Monday
. High: 62° F.
Tuesday
. High: 62° F.
Wednesday
. High: 77° F.
Thursday
. High: 78° F.
Friday
. High: 66° F.
Saturday
. High: 64° F.
Sunday
. High: 68° F.
Monday
. High: 62° F.

Units: English | Metric

Find the Weather for any City, State or Zipcode, or Country:

U.S. State List | Severe Weather | Tropical Storms | Ski Conditions
United States | Canada | Central America | South America | Asia | Europe | Australia | Africa | Islands

Weather Underground

© Copyright 2018
The Weather Company, LLC